Time;durP1;ratioP1;P1;durP2;ratioP2;P2;SDS_P1;SDS_P2;PMS_P1;PMS_P2;Temp;Humidity;BMP_temperature;BMP_pressure;BME280_temperature;BME280_humidity;BME280_pressure;Samples;Min_cycle;Max_cycle;Signal;HPM_P1;HPM_P2
2020/12/16 00:01:55;;;;;;;202.27;13.38;;;8.00;99.90;;;;;;10375084;28;20052;-69
2020/12/16 00:06:57;;;;;;;384.95;19.40;;;8.00;99.90;;;;;;10364372;28;20074;-69
2020/12/16 00:11:59;;;;;;;494.83;27.63;;;8.00;99.90;;;;;;10372049;28;20076;-69
2020/12/16 00:17:01;;;;;;;364.25;19.95;;;8.10;99.90;;;;;;10337847;28;20148;-69
2020/12/16 00:22:02;;;;;;;264.45;15.45;;;8.00;99.90;;;;;;10361692;28;20045;-68
2020/12/16 00:27:04;;;;;;;433.75;23.52;;;8.00;99.90;;;;;;10370331;28;20050;-69
2020/12/16 00:32:05;;;;;;;224.93;14.73;;;8.00;99.90;;;;;;10373354;28;20062;-70
2020/12/16 00:37:07;;;;;;;252.55;15.15;;;7.90;99.90;;;;;;10368063;28;20148;-69
2020/12/16 00:42:09;;;;;;;127.82;10.60;;;7.90;99.90;;;;;;10370398;28;20046;-69
2020/12/16 00:47:11;;;;;;;178.57;12.57;;;7.90;99.90;;;;;;10362263;28;20057;-69
2020/12/16 00:52:12;;;;;;;156.00;12.27;;;7.80;99.90;;;;;;10353301;28;20572;-69
2020/12/16 00:57:14;;;;;;;158.68;11.40;;;7.80;99.90;;;;;;10355548;28;20165;-69
2020/12/16 01:02:16;;;;;;;181.73;12.00;;;7.70;99.90;;;;;;10351293;28;20076;-69
2020/12/16 01:07:17;;;;;;;284.05;14.10;;;7.70;99.90;;;;;;10356781;28;20049;-69
2020/12/16 01:12:19;;;;;;;451.63;20.80;;;7.80;99.90;;;;;;10348713;28;20085;-69
2020/12/16 01:17:20;;;;;;;874.50;29.02;;;7.80;99.90;;;;;;10370915;28;20465;-69
2020/12/16 01:22:22;;;;;;;631.50;24.80;;;7.90;99.90;;;;;;10371281;28;20058;-69
2020/12/16 01:27:23;;;;;;;409.90;19.75;;;7.90;99.90;;;;;;10355485;28;20050;-69
2020/12/16 01:32:25;;;;;;;300.40;16.58;;;7.90;99.90;;;;;;10354380;28;20050;-69
2020/12/16 01:37:27;;;;;;;214.32;13.55;;;7.70;99.90;;;;;;10346603;28;20089;-69
2020/12/16 01:42:28;;;;;;;434.88;20.33;;;7.70;99.90;;;;;;10365397;28;20074;-69
2020/12/16 01:47:30;;;;;;;405.77;17.92;;;7.60;99.90;;;;;;10367574;28;20089;-69
2020/12/16 01:52:31;;;;;;;522.25;22.75;;;7.60;99.90;;;;;;10369872;28;20081;-69
2020/12/16 01:57:37;;;;;;;547.28;23.05;;;7.60;99.90;;;;;;10374770;28;20446;-69
2020/12/16 02:02:48;;;;;;;239.05;14.68;;;7.80;99.90;;;;;;10363140;28;20069;-69
2020/12/16 02:07:53;;;;;;;332.10;18.92;;;8.00;99.90;;;;;;10348774;28;20050;-70
2020/12/16 02:12:55;;;;;;;441.08;28.20;;;8.00;99.90;;;;;;10333693;28;20085;-69
2020/12/16 02:17:56;;;;;;;450.40;22.52;;;8.10;99.90;;;;;;10352886;28;20156;-69
2020/12/16 02:23:00;;;;;;;422.80;20.50;;;8.20;99.90;;;;;;10356641;28;20379;-69
2020/12/16 02:28:02;;;;;;;292.98;16.10;;;8.20;99.90;;;;;;10354926;28;20050;-69
2020/12/16 02:33:03;;;;;;;403.65;21.25;;;8.20;99.90;;;;;;10364476;28;20085;-69
2020/12/16 02:38:05;;;;;;;416.60;22.05;;;8.10;99.90;;;;;;10353134;28;20054;-69
2020/12/16 02:43:06;;;;;;;452.50;28.80;;;8.10;99.90;;;;;;10330709;28;20050;-69
2020/12/16 02:48:08;;;;;;;415.55;22.83;;;8.20;99.90;;;;;;10367124;28;20405;-69
2020/12/16 02:53:10;;;;;;;380.88;23.38;;;8.20;99.90;;;;;;10352867;28;20050;-69
2020/12/16 02:58:12;;;;;;;362.02;22.45;;;8.10;99.90;;;;;;10351276;28;20527;-69
2020/12/16 03:03:13;;;;;;;406.17;24.17;;;8.10;99.90;;;;;;10362694;28;20081;-68
2020/12/16 03:08:15;;;;;;;473.83;26.13;;;8.10;99.90;;;;;;10364324;28;20141;-69
2020/12/16 03:13:16;;;;;;;373.48;23.50;;;8.20;99.90;;;;;;10376113;28;20491;-69
2020/12/16 03:18:18;;;;;;;323.80;20.33;;;8.20;99.90;;;;;;10342056;28;20046;-69
2020/12/16 03:23:19;;;;;;;477.48;31.25;;;8.10;99.90;;;;;;10370641;28;20048;-69
2020/12/16 03:28:21;;;;;;;324.33;20.73;;;8.10;99.90;;;;;;10360787;28;20050;-69
2020/12/16 03:33:22;;;;;;;400.55;31.55;;;8.10;99.90;;;;;;10390184;28;20112;-69
2020/12/16 03:38:23;;;;;;;275.05;20.90;;;8.10;99.90;;;;;;10363983;28;20137;-68
2020/12/16 03:43:25;;;;;;;249.57;22.90;;;8.10;99.90;;;;;;10351936;28;20493;-69
2020/12/16 03:48:26;;;;;;;372.17;28.85;;;8.20;99.90;;;;;;10336812;28;20482;-69
2020/12/16 03:53:28;;;;;;;220.77;19.08;;;8.10;99.90;;;;;;10350038;28;20405;-69
2020/12/16 03:58:31;;;;;;;269.00;22.10;;;8.20;99.90;;;;;;10351261;28;20056;-69
2020/12/16 04:03:35;;;;;;;238.52;21.08;;;8.20;99.90;;;;;;10353403;28;20054;-69
2020/12/16 04:08:39;;;;;;;141.48;16.23;;;8.30;99.90;;;;;;10361882;28;20046;-69
2020/12/16 04:13:40;;;;;;;295.13;18.63;;;8.30;99.90;;;;;;10389205;28;20077;-69
2020/12/16 04:18:42;;;;;;;282.35;18.35;;;8.40;99.90;;;;;;10336946;28;20054;-69
2020/12/16 04:23:43;;;;;;;283.85;20.63;;;8.40;99.90;;;;;;10351428;28;20133;-69
2020/12/16 04:28:45;;;;;;;115.57;16.98;;;8.40;99.90;;;;;;10349406;28;20137;-69
2020/12/16 04:33:46;;;;;;;73.57;20.55;;;8.40;99.90;;;;;;10357375;28;20522;-68
2020/12/16 04:38:48;;;;;;;200.75;25.88;;;8.50;99.90;;;;;;10359601;28;20477;-69
2020/12/16 04:43:53;;;;;;;161.30;25.65;;;8.50;99.90;;;;;;10361126;28;20050;-69
2020/12/16 04:48:55;;;;;;;178.93;24.67;;;8.30;99.90;;;;;;10333341;28;20121;-69
2020/12/16 04:53:57;;;;;;;388.85;25.73;;;8.40;99.90;;;;;;10348371;28;20485;-69
2020/12/16 04:58:58;;;;;;;97.88;17.90;;;8.40;99.90;;;;;;10381795;28;20125;-69
2020/12/16 05:04:00;;;;;;;290.38;18.67;;;8.30;99.90;;;;;;10361575;28;20133;-69
2020/12/16 05:09:08;;;;;;;78.00;17.77;;;8.30;99.90;;;;;;10347245;28;20124;-69
2020/12/16 05:14:14;;;;;;;415.95;19.70;;;8.20;99.90;;;;;;10370871;28;20183;-69
2020/12/16 05:19:40;;;;;;;96.47;21.08;;;8.10;99.90;;;;;;10344139;28;20403;-69
2020/12/16 05:24:43;;;;;;;78.90;19.63;;;8.10;99.90;;;;;;10371375;28;20409;-69
2020/12/16 05:29:45;;;;;;;441.00;29.58;;;7.90;99.90;;;;;;10342890;28;20477;-69
2020/12/16 05:34:47;;;;;;;285.00;29.75;;;8.00;99.90;;;;;;10331294;28;20471;-69
2020/12/16 05:39:59;;;;;;;110.20;25.33;;;8.00;99.90;;;;;;10342878;28;20045;-69
2020/12/16 05:45:14;;;;;;;45.70;20.73;;;8.10;99.90;;;;;;10341138;28;20042;-69
2020/12/16 05:50:17;;;;;;;36.25;17.27;;;8.00;99.90;;;;;;10332613;28;20525;-69
2020/12/16 05:55:28;;;;;;;36.65;17.80;;;8.10;99.90;;;;;;10341145;28;20561;-69
2020/12/16 06:00:30;;;;;;;31.95;16.58;;;7.90;99.90;;;;;;10342950;28;20053;-69
2020/12/16 06:05:31;;;;;;;47.95;20.15;;;7.80;99.90;;;;;;10369935;28;20414;-69
2020/12/16 06:10:35;;;;;;;40.65;18.15;;;7.90;99.90;;;;;;10357155;28;20096;-70
2020/12/16 06:15:49;;;;;;;29.33;16.55;;;8.00;99.90;;;;;;10365582;28;20129;-69
2020/12/16 06:20:51;;;;;;;32.15;16.77;;;8.10;99.90;;;;;;10343474;28;20050;-69
2020/12/16 06:25:55;;;;;;;44.85;20.73;;;8.20;99.90;;;;;;10350618;28;20054;-69
2020/12/16 06:31:06;;;;;;;65.13;24.13;;;8.20;99.90;;;;;;10338104;28;20141;-69
2020/12/16 06:36:10;;;;;;;36.42;17.73;;;8.10;99.90;;;;;;10354903;28;20049;-69
2020/12/16 06:41:17;;;;;;;205.90;27.67;;;8.00;99.90;;;;;;10377981;28;20101;-69
2020/12/16 06:46:34;;;;;;;84.70;23.48;;;8.10;99.90;;;;;;10344825;28;20054;-69
2020/12/16 06:51:47;;;;;;;37.55;17.02;;;8.20;99.90;;;;;;10362449;28;20457;-69
2020/12/16 06:56:50;;;;;;;57.97;20.60;;;8.30;99.90;;;;;;10364602;28;20156;-69
2020/12/16 07:02:14;;;;;;;55.17;20.50;;;8.20;99.90;;;;;;10373194;28;20052;-69
2020/12/16 07:07:40;;;;;;;102.28;23.80;;;8.30;99.90;;;;;;10340596;28;20101;-69
2020/12/16 07:12:42;;;;;;;78.05;25.98;;;8.30;99.90;;;;;;10352730;28;20057;-69
2020/12/16 07:17:43;;;;;;;70.70;20.45;;;8.30;99.90;;;;;;10347753;28;20050;-69
2020/12/16 07:22:46;;;;;;;85.45;24.80;;;8.30;99.90;;;;;;10337945;28;20050;-69
2020/12/16 07:27:48;;;;;;;103.05;27.98;;;8.30;99.90;;;;;;10346094;28;20058;-69
2020/12/16 07:32:49;;;;;;;139.02;29.60;;;8.30;99.90;;;;;;10348219;28;20498;-69
2020/12/16 07:37:57;;;;;;;253.25;35.20;;;8.40;99.90;;;;;;10366742;28;20112;-69
2020/12/16 07:42:59;;;;;;;122.45;31.15;;;8.50;99.90;;;;;;10391158;28;20046;-68
2020/12/16 07:48:02;;;;;;;130.57;27.60;;;8.40;99.90;;;;;;10366550;28;20077;-69
2020/12/16 07:53:04;;;;;;;639.67;36.45;;;8.40;99.90;;;;;;10355761;28;20137;-69
2020/12/16 07:58:09;;;;;;;495.05;36.20;;;8.30;99.90;;;;;;10342786;28;20057;-69
2020/12/16 08:03:11;;;;;;;130.52;24.08;;;8.30;99.90;;;;;;10372034;28;20093;-69
2020/12/16 08:08:13;;;;;;;316.33;38.85;;;8.30;99.90;;;;;;10388397;28;20072;-69
2020/12/16 08:13:27;;;;;;;383.38;42.45;;;8.40;99.90;;;;;;10385381;28;20076;-69
2020/12/16 08:18:29;;;;;;;247.63;35.10;;;8.40;99.90;;;;;;10375797;28;20469;-69
2020/12/16 08:23:31;;;;;;;192.35;34.72;;;8.50;99.90;;;;;;10372336;28;20054;-69
2020/12/16 08:28:33;;;;;;;226.85;26.83;;;8.60;99.90;;;;;;10353909;28;20414;-69
2020/12/16 08:33:35;;;;;;;74.70;24.77;;;8.60;99.90;;;;;;10366689;28;20077;-69
2020/12/16 08:38:41;;;;;;;228.55;36.42;;;8.70;99.90;;;;;;10347171;28;20478;-69
2020/12/16 08:43:43;;;;;;;138.05;31.92;;;8.80;99.90;;;;;;10355342;28;20074;-69
2020/12/16 08:48:52;;;;;;;209.63;34.22;;;8.70;99.90;;;;;;10366450;28;20054;-69
2020/12/16 08:53:59;;;;;;;146.88;29.92;;;8.70;99.90;;;;;;10363024;28;20042;-69
2020/12/16 08:59:03;;;;;;;155.20;32.20;;;8.80;99.90;;;;;;10357291;28;20049;-70
2020/12/16 09:04:07;;;;;;;131.15;30.30;;;8.90;99.90;;;;;;10356463;28;20081;-69
2020/12/16 09:09:15;;;;;;;169.25;33.75;;;8.90;99.90;;;;;;10372030;28;20049;-69
2020/12/16 09:14:18;;;;;;;119.93;32.58;;;9.10;99.90;;;;;;10329496;28;20530;-69
2020/12/16 09:19:23;;;;;;;96.78;31.00;;;9.20;99.90;;;;;;10353393;28;20081;-69
2020/12/16 09:24:25;;;;;;;83.03;25.58;;;9.20;99.90;;;;;;10381009;28;20071;-69
2020/12/16 09:29:29;;;;;;;99.95;26.58;;;9.10;99.90;;;;;;10335671;28;20137;-72
2020/12/16 09:34:55;;;;;;;108.60;25.70;;;9.10;99.90;;;;;;10369582;28;20085;-72
2020/12/16 09:40:08;;;;;;;323.05;42.67;;;9.10;99.90;;;;;;10366429;28;20048;-72
2020/12/16 09:45:20;;;;;;;98.63;32.90;;;9.10;99.90;;;;;;10360365;28;20053;-72
2020/12/16 09:50:37;;;;;;;75.53;27.88;;;9.00;99.90;;;;;;10361335;28;20046;-74
2020/12/16 09:55:40;;;;;;;286.17;38.50;;;9.10;99.90;;;;;;10380146;28;20042;-74
2020/12/16 10:00:46;;;;;;;345.92;43.80;;;9.10;99.90;;;;;;10366669;28;20050;-73
2020/12/16 10:05:47;;;;;;;77.50;26.88;;;9.20;99.90;;;;;;10351531;28;20092;-73
2020/12/16 10:10:49;;;;;;;181.20;33.47;;;9.30;99.90;;;;;;10337569;28;20467;-73
2020/12/16 10:15:54;;;;;;;73.78;28.30;;;9.50;99.90;;;;;;10344333;28;20042;-73
2020/12/16 10:20:56;;;;;;;59.20;25.08;;;9.90;99.90;;;;;;10335558;28;20146;-74
2020/12/16 10:25:57;;;;;;;75.82;27.85;;;10.00;99.90;;;;;;10337032;28;20466;-74
2020/12/16 10:31:08;;;;;;;76.85;29.95;;;9.90;99.90;;;;;;10345559;28;20053;-73
2020/12/16 10:36:14;;;;;;;52.92;27.42;;;9.80;99.90;;;;;;10344608;28;20053;-73
2020/12/16 10:41:16;;;;;;;32.38;21.77;;;9.60;99.90;;;;;;10334107;28;20146;-74
2020/12/16 10:46:17;;;;;;;35.10;22.58;;;9.80;99.90;;;;;;10347018;28;20373;-74
2020/12/16 10:51:19;;;;;;;49.92;27.25;;;9.90;99.90;;;;;;10365417;28;20065;-74
2020/12/16 10:56:20;;;;;;;42.15;24.20;;;10.40;99.90;;;;;;10364265;28;20158;-74
2020/12/16 11:01:22;;;;;;;57.17;28.95;;;10.60;99.90;;;;;;10375063;28;20042;-73
2020/12/16 11:06:23;;;;;;;35.72;23.45;;;10.70;99.90;;;;;;10335025;28;20304;-74
2020/12/16 11:11:25;;;;;;;42.22;25.85;;;10.70;99.90;;;;;;10351972;28;20054;-73
2020/12/16 11:16:30;;;;;;;36.80;24.45;;;10.70;99.90;;;;;;10337707;28;20051;-74
2020/12/16 11:21:51;;;;;;;37.47;23.83;;;11.00;99.90;;;;;;10359284;28;20053;-74
2020/12/16 11:26:53;;;;;;;34.47;22.88;;;11.00;99.90;;;;;;10360902;28;20081;-74
2020/12/16 11:32:03;;;;;;;29.45;21.35;;;11.00;99.90;;;;;;10352438;28;20046;-74
2020/12/16 11:37:05;;;;;;;27.73;19.73;;;10.90;99.90;;;;;;10370479;28;20052;-74
2020/12/16 11:42:07;;;;;;;33.83;22.48;;;10.90;99.90;;;;;;10370823;28;20524;-74
2020/12/16 11:47:11;;;;;;;30.10;21.52;;;11.10;99.90;;;;;;10373101;28;20470;-74
2020/12/16 11:52:12;;;;;;;29.73;21.40;;;11.40;99.90;;;;;;10363308;28;20042;-74
2020/12/16 11:57:14;;;;;;;23.83;18.02;;;11.40;99.90;;;;;;10356886;28;20056;-74
2020/12/16 12:02:15;;;;;;;28.80;20.75;;;11.20;99.90;;;;;;10364434;28;20604;-74
2020/12/16 12:07:18;;;;;;;24.75;20.02;;;11.40;99.90;;;;;;10346730;28;20046;-74
2020/12/16 12:12:19;;;;;;;28.10;20.63;;;11.50;99.90;;;;;;10369788;28;20038;-74
2020/12/16 12:17:21;;;;;;;42.85;26.25;;;11.70;99.90;;;;;;10334473;28;20148;-74
2020/12/16 12:22:22;;;;;;;43.17;28.35;;;11.50;99.90;;;;;;10336138;28;20046;-74
2020/12/16 12:27:24;;;;;;;30.05;22.00;;;11.60;99.90;;;;;;10372060;28;20137;-73
2020/12/16 12:32:26;;;;;;;30.77;21.95;;;11.70;99.90;;;;;;10385341;28;20537;-74
2020/12/16 12:37:27;;;;;;;32.97;22.38;;;11.80;99.90;;;;;;10372673;28;20452;-74
2020/12/16 12:42:29;;;;;;;32.70;22.50;;;11.80;99.90;;;;;;10352770;28;20506;-74
2020/12/16 12:47:31;;;;;;;37.67;25.17;;;11.80;99.90;;;;;;10343988;28;20050;-74
2020/12/16 12:52:35;;;;;;;33.78;23.25;;;11.60;99.90;;;;;;10369643;28;20450;-74
2020/12/16 12:57:41;;;;;;;38.17;25.23;;;11.60;99.90;;;;;;10369397;28;20061;-74
2020/12/16 13:02:42;;;;;;;27.52;21.45;;;11.60;99.90;;;;;;10372230;28;20077;-74
2020/12/16 13:07:45;;;;;;;23.90;19.02;;;11.70;99.90;;;;;;10355568;28;20562;-74
2020/12/16 13:12:49;;;;;;;21.90;16.73;;;11.90;99.90;;;;;;10332689;28;20470;-74
2020/12/16 13:17:50;;;;;;;30.02;19.27;;;12.00;99.90;;;;;;10332447;28;20054;-73
2020/12/16 13:22:52;;;;;;;20.50;16.88;;;12.10;99.90;;;;;;10332551;28;20057;-73
2020/12/16 13:27:53;;;;;;;20.02;16.48;;;12.20;99.90;;;;;;10332544;28;20139;-73
2020/12/16 13:32:55;;;;;;;19.80;15.70;;;12.20;99.90;;;;;;10346866;28;20050;-74
2020/12/16 13:37:56;;;;;;;21.92;18.35;;;12.10;99.90;;;;;;10350199;28;20137;-74
2020/12/16 13:42:58;;;;;;;20.85;15.60;;;12.00;99.90;;;;;;10383693;28;20145;-74
2020/12/16 13:48:00;;;;;;;21.00;15.82;;;12.10;99.90;;;;;;10387180;28;20431;-74
2020/12/16 13:53:02;;;;;;;22.73;16.08;;;12.10;99.90;;;;;;10372323;28;20501;-74
2020/12/16 13:58:03;;;;;;;20.08;15.98;;;12.10;99.90;;;;;;10371309;28;20088;-73
2020/12/16 14:03:10;;;;;;;19.33;14.05;;;12.00;99.90;;;;;;10371496;28;20078;-74
2020/12/16 14:08:12;;;;;;;18.25;14.23;;;12.10;99.90;;;;;;10371818;28;20482;-74
2020/12/16 14:13:13;;;;;;;19.38;15.57;;;12.10;99.90;;;;;;10371173;28;20447;-73
2020/12/16 14:18:15;;;;;;;25.75;18.23;;;12.10;99.90;;;;;;10371503;28;20077;-74
2020/12/16 14:23:16;;;;;;;22.13;15.52;;;12.10;99.90;;;;;;10371578;28;20077;-74
2020/12/16 14:28:18;;;;;;;20.67;15.98;;;12.10;99.90;;;;;;10369365;28;20050;-74
2020/12/16 14:33:34;;;;;;;20.20;15.25;;;12.00;99.90;;;;;;10371034;28;20053;-74
2020/12/16 14:38:36;;;;;;;20.13;14.95;;;11.80;99.90;;;;;;10369886;28;20139;-74
2020/12/16 14:43:39;;;;;;;20.00;15.68;;;11.80;99.90;;;;;;10368826;28;20046;-74
2020/12/16 14:48:40;;;;;;;23.27;16.33;;;11.60;99.90;;;;;;10390965;28;20133;-73
2020/12/16 14:53:42;;;;;;;22.17;17.40;;;11.60;99.90;;;;;;10379081;28;20064;-74
2020/12/16 14:58:43;;;;;;;23.13;17.35;;;11.60;99.90;;;;;;10393897;28;20050;-73
2020/12/16 15:03:45;;;;;;;25.08;19.08;;;11.60;99.90;;;;;;10393737;28;20046;-74
2020/12/16 15:08:48;;;;;;;27.27;20.25;;;11.50;99.90;;;;;;10352518;28;20057;-74
2020/12/16 15:13:49;;;;;;;27.15;20.50;;;11.60;99.90;;;;;;10352144;28;20094;-74
2020/12/16 15:18:50;;;;;;;29.25;20.88;;;11.50;99.90;;;;;;10388291;28;20133;-73
2020/12/16 15:23:53;;;;;;;27.02;20.17;;;11.50;99.90;;;;;;10363558;28;20045;-73
2020/12/16 15:28:54;;;;;;;28.15;21.30;;;11.50;99.90;;;;;;10368903;28;20082;-73
2020/12/16 15:33:57;;;;;;;27.90;21.25;;;11.50;99.90;;;;;;10348252;28;20050;-74
2020/12/16 15:38:59;;;;;;;29.10;21.33;;;11.40;99.90;;;;;;10363901;28;20055;-74
2020/12/16 15:44:01;;;;;;;27.17;20.73;;;11.50;99.90;;;;;;10361012;28;20085;-73
2020/12/16 15:49:03;;;;;;;30.10;21.52;;;11.60;99.90;;;;;;10348337;28;20116;-73
2020/12/16 15:54:05;;;;;;;29.50;22.52;;;11.70;99.90;;;;;;10363404;28;20453;-73
2020/12/16 15:59:06;;;;;;;30.52;23.05;;;11.80;99.90;;;;;;10349761;28;20060;-74
2020/12/16 16:04:17;;;;;;;25.35;19.25;;;11.70;99.90;;;;;;10358251;28;20557;-73
2020/12/16 16:09:19;;;;;;;27.52;19.88;;;11.60;99.90;;;;;;10351111;28;20085;-74
2020/12/16 16:14:21;;;;;;;28.33;19.40;;;11.70;99.90;;;;;;10336277;28;20125;-73
2020/12/16 16:19:22;;;;;;;31.27;22.23;;;11.60;99.90;;;;;;10355659;28;20054;-74
2020/12/16 16:24:24;;;;;;;30.52;21.73;;;11.50;99.90;;;;;;10335774;28;20513;-73
2020/12/16 16:29:26;;;;;;;30.63;22.02;;;11.40;99.90;;;;;;10342835;28;20101;-69
2020/12/16 16:34:29;;;;;;;30.02;22.38;;;11.40;99.90;;;;;;10380932;28;20061;-70
2020/12/16 16:39:32;;;;;;;30.63;22.65;;;11.40;99.90;;;;;;10341388;28;20050;-70
2020/12/16 16:44:33;;;;;;;28.55;21.40;;;11.40;99.90;;;;;;10332605;28;20046;-70
2020/12/16 16:49:35;;;;;;;29.63;22.98;;;11.40;99.90;;;;;;10352638;28;20506;-70
2020/12/16 16:54:37;;;;;;;29.23;22.92;;;11.40;99.90;;;;;;10338658;28;20062;-70
2020/12/16 16:59:41;;;;;;;31.30;23.88;;;11.40;99.90;;;;;;10361488;28;20300;-70
2020/12/16 17:05:04;;;;;;;34.10;24.70;;;11.30;99.90;;;;;;10330624;28;20454;-70
2020/12/16 17:10:07;;;;;;;30.38;22.95;;;11.30;99.90;;;;;;10331763;28;20054;-70
2020/12/16 17:15:10;;;;;;;33.83;24.38;;;11.20;99.90;;;;;;10359527;28;20046;-70
2020/12/16 17:20:14;;;;;;;34.28;24.50;;;11.30;99.90;;;;;;10356184;28;20161;-70
2020/12/16 17:25:18;;;;;;;35.13;24.55;;;11.40;99.90;;;;;;10346168;28;20074;-70
2020/12/16 17:30:20;;;;;;;31.35;24.08;;;11.40;99.90;;;;;;10369623;28;20128;-70
2020/12/16 17:35:22;;;;;;;37.10;26.70;;;11.20;99.90;;;;;;10341407;28;20057;-70
2020/12/16 17:40:26;;;;;;;37.10;25.73;;;11.20;99.90;;;;;;10344321;28;20053;-70
2020/12/16 17:45:28;;;;;;;36.20;27.17;;;11.20;99.90;;;;;;10377537;28;20038;-70
2020/12/16 17:50:30;;;;;;;37.05;25.98;;;11.10;99.90;;;;;;10355343;28;20042;-69
2020/12/16 17:55:32;;;;;;;39.50;28.23;;;11.00;99.90;;;;;;10358936;28;20521;-69
2020/12/16 18:00:33;;;;;;;31.55;23.25;;;10.80;99.90;;;;;;10362364;28;20502;-70
2020/12/16 18:05:36;;;;;;;32.22;23.45;;;10.70;99.90;;;;;;10363337;28;20500;-69
2020/12/16 18:10:38;;;;;;;32.20;23.83;;;10.60;99.90;;;;;;10337582;28;20486;-69
2020/12/16 18:15:40;;;;;;;41.00;26.88;;;10.40;99.90;;;;;;10359354;28;20164;-70
2020/12/16 18:20:42;;;;;;;34.85;25.95;;;10.30;99.90;;;;;;10365147;28;20046;-70
2020/12/16 18:25:46;;;;;;;36.58;26.98;;;10.30;99.90;;;;;;10368600;28;20466;-69
2020/12/16 18:30:47;;;;;;;39.22;27.27;;;10.20;99.90;;;;;;10333135;28;20046;-69
2020/12/16 18:35:54;;;;;;;39.67;27.77;;;10.20;99.90;;;;;;10327514;28;20056;-69
2020/12/16 18:40:58;;;;;;;41.40;28.60;;;10.30;99.90;;;;;;10359219;28;20052;-70
2020/12/16 18:46:00;;;;;;;37.47;27.20;;;10.40;99.90;;;;;;10365007;28;20128;-69
2020/12/16 18:51:02;;;;;;;34.05;24.77;;;10.40;99.90;;;;;;10365076;28;20052;-70
2020/12/16 18:56:07;;;;;;;35.30;25.95;;;10.30;99.90;;;;;;10356735;28;20145;-70
2020/12/16 19:01:09;;;;;;;39.22;26.17;;;10.20;99.90;;;;;;10340105;28;20061;-69
2020/12/16 19:06:15;;;;;;;39.97;27.45;;;10.20;99.90;;;;;;10365723;28;20053;-69
2020/12/16 19:11:17;;;;;;;44.38;30.45;;;10.00;99.90;;;;;;10353127;28;20057;-69
2020/12/16 19:16:19;;;;;;;42.53;30.27;;;10.00;99.90;;;;;;10367810;28;20437;-69
2020/12/16 19:21:21;;;;;;;53.92;32.92;;;10.00;99.90;;;;;;10346017;28;20050;-69
2020/12/16 19:26:26;;;;;;;44.30;29.65;;;9.90;99.90;;;;;;10365557;28;20057;-69
2020/12/16 19:31:28;;;;;;;59.38;35.83;;;9.80;99.90;;;;;;10359376;28;20050;-69
2020/12/16 19:36:30;;;;;;;98.75;49.15;;;9.70;99.90;;;;;;10343696;28;20112;-70
2020/12/16 19:41:36;;;;;;;53.17;34.80;;;9.60;99.90;;;;;;10373542;28;20137;-69
2020/12/16 19:46:59;;;;;;;111.18;49.33;;;9.50;99.90;;;;;;10337129;28;20061;-69
2020/12/16 19:52:00;;;;;;;110.50;48.65;;;9.40;99.90;;;;;;10351591;28;20140;-70
2020/12/16 19:57:03;;;;;;;634.40;58.65;;;9.40;99.90;;;;;;10357484;28;20148;-69
2020/12/16 20:02:05;;;;;;;404.35;49.78;;;9.30;99.90;;;;;;10370535;28;20046;-69
2020/12/16 20:07:06;;;;;;;106.40;39.75;;;9.30;99.90;;;;;;10385268;28;20054;-69
2020/12/16 20:12:08;;;;;;;65.65;33.70;;;9.30;99.90;;;;;;10333121;28;20047;-69
2020/12/16 20:17:10;;;;;;;66.30;35.15;;;9.20;99.90;;;;;;10357730;28;20133;-69
2020/12/16 20:22:11;;;;;;;541.30;73.47;;;9.10;99.90;;;;;;10347158;28;20112;-69
2020/12/16 20:27:13;;;;;;;66.25;33.80;;;9.00;99.90;;;;;;10343072;28;20100;-69
2020/12/16 20:32:15;;;;;;;595.50;48.28;;;9.00;99.90;;;;;;10367331;28;20097;-70
2020/12/16 20:37:16;;;;;;;614.47;51.92;;;9.00;99.90;;;;;;10356956;28;20081;-70
2020/12/16 20:42:18;;;;;;;650.42;49.55;;;9.00;99.90;;;;;;10367459;28;20165;-69
2020/12/16 20:47:19;;;;;;;422.17;42.58;;;9.00;99.90;;;;;;10368743;28;20046;-70
2020/12/16 20:52:21;;;;;;;284.33;53.72;;;8.90;99.90;;;;;;10368997;28;20042;-69
2020/12/16 20:57:26;;;;;;;175.43;45.28;;;8.80;99.90;;;;;;10371073;28;20042;-70
2020/12/16 21:02:27;;;;;;;94.40;37.15;;;8.90;99.90;;;;;;10362310;28;20073;-70
2020/12/16 21:07:29;;;;;;;584.22;70.13;;;8.70;99.90;;;;;;10368722;28;20046;-69
2020/12/16 21:12:31;;;;;;;627.42;68.55;;;8.80;99.90;;;;;;10369588;28;20129;-69
2020/12/16 21:17:33;;;;;;;124.10;40.40;;;8.70;99.90;;;;;;10370208;28;20054;-69
2020/12/16 21:22:35;;;;;;;116.38;37.70;;;8.60;99.90;;;;;;10369924;28;20411;-70
2020/12/16 21:27:39;;;;;;;494.67;50.80;;;8.60;99.90;;;;;;10368341;28;20084;-69
2020/12/16 21:32:42;;;;;;;360.23;54.42;;;8.50;99.90;;;;;;10366367;28;20399;-69
2020/12/16 21:37:44;;;;;;;107.05;39.42;;;8.50;99.90;;;;;;10370625;28;20084;-69
2020/12/16 21:42:46;;;;;;;449.70;43.42;;;8.50;99.90;;;;;;10358133;28;20061;-69
2020/12/16 21:47:47;;;;;;;681.83;57.30;;;8.60;99.90;;;;;;10346651;28;20474;-69
2020/12/16 21:52:49;;;;;;;337.60;38.75;;;8.50;99.90;;;;;;10365178;28;20391;-69
2020/12/16 21:57:51;;;;;;;500.63;48.92;;;8.50;99.90;;;;;;10351799;28;20050;-69
2020/12/16 22:02:53;;;;;;;291.63;41.55;;;8.40;99.90;;;;;;10371666;28;20395;-69
2020/12/16 22:08:15;;;;;;;136.95;39.33;;;8.30;99.90;;;;;;10355405;28;20105;-69
2020/12/16 22:13:17;;;;;;;99.47;40.20;;;8.30;99.90;;;;;;10344942;28;20046;-69
2020/12/16 22:18:19;;;;;;;47.58;30.17;;;8.40;99.90;;;;;;10368861;28;20510;-69
2020/12/16 22:23:23;;;;;;;39.28;23.20;;;8.50;99.90;;;;;;10353482;28;20498;-69
2020/12/16 22:28:29;;;;;;;51.80;29.00;;;8.70;99.90;;;;;;10328744;28;20081;-69
2020/12/16 22:33:32;;;;;;;91.22;35.90;;;8.50;99.90;;;;;;10349511;28;20104;-69
2020/12/16 22:38:36;;;;;;;65.00;32.13;;;8.50;99.90;;;;;;10366466;28;20454;-69
2020/12/16 22:43:37;;;;;;;123.20;31.27;;;8.50;99.90;;;;;;10367930;28;20050;-69
2020/12/16 22:48:38;;;;;;;47.15;28.08;;;8.50;99.90;;;;;;10366850;28;20064;-69
2020/12/16 22:53:44;;;;;;;46.35;27.27;;;8.50;99.90;;;;;;10366363;28;20057;-69
2020/12/16 22:58:47;;;;;;;53.67;30.08;;;8.40;99.90;;;;;;10351117;28;20568;-69
2020/12/16 23:03:49;;;;;;;61.92;31.70;;;8.30;99.90;;;;;;10368197;28;20085;-69
2020/12/16 23:08:53;;;;;;;57.88;29.88;;;8.20;99.90;;;;;;10369478;28;20041;-69
2020/12/16 23:13:55;;;;;;;68.28;32.70;;;8.30;99.90;;;;;;10352576;28;20050;-69
2020/12/16 23:18:59;;;;;;;62.67;30.95;;;8.30;99.90;;;;;;10350581;28;20050;-69
2020/12/16 23:24:01;;;;;;;126.53;33.60;;;8.30;99.90;;;;;;10348861;28;20478;-69
2020/12/16 23:29:03;;;;;;;52.83;28.45;;;8.20;99.90;;;;;;10375504;28;20050;-70
2020/12/16 23:34:06;;;;;;;55.13;29.52;;;8.10;99.90;;;;;;10346242;28;20050;-69
2020/12/16 23:39:08;;;;;;;72.80;29.30;;;8.00;99.90;;;;;;10362383;28;20093;-70
2020/12/16 23:44:09;;;;;;;37.70;24.88;;;8.00;99.90;;;;;;10371820;28;20073;-70
2020/12/16 23:49:11;;;;;;;94.97;36.22;;;7.90;99.90;;;;;;10373076;28;20148;-70
2020/12/16 23:54:12;;;;;;;64.03;30.52;;;8.00;99.90;;;;;;10372616;28;20046;-69
2020/12/16 23:59:14;;;;;;;83.15;30.63;;;8.00;99.90;;;;;;10372529;28;20085;-69
